Time;durP1;ratioP1;P1;durP2;ratioP2;P2;SDS_P1;SDS_P2;PMS_P1;PMS_P2;Temp;Humidity;BMP_temperature;BMP_pressure;BME280_temperature;BME280_humidity;BME280_pressure;Samples;Min_cycle;Max_cycle;Signal;HPM_P1;HPM_P2
2022/02/03 00:02:16;;;;;;;;;;;19.50;57.30;;;;;;5052151;28;1138;-66
2022/02/03 00:05:05;;;;;;;;;;;19.50;57.30;;;;;;5037332;28;1395;-66
2022/02/03 00:07:52;;;;;;;;;;;19.50;57.30;;;;;;5036365;28;1289;-66
2022/02/03 00:10:34;;;;;;;;;;;19.50;57.40;;;;;;5036920;28;1465;-66
2022/02/03 00:24:19;;;;;;;;;;;19.40;57.40;;;;;;4963066;28;1535;-67
2022/02/03 00:26:58;;;;;;;;;;;19.40;57.40;;;;;;5056148;28;1154;-67
2022/02/03 00:32:17;;;;;;;;;;;19.40;57.50;;;;;;5034288;28;2108;-65
2022/02/03 00:35:06;;;;;;;;;;;19.40;57.50;;;;;;5055418;28;1902;-66
2022/02/03 00:37:46;;;;;;;;;;;19.40;57.50;;;;;;5043097;28;1053;-65
2022/02/03 00:48:32;;;;;;;;;;;19.30;57.60;;;;;;5055068;28;1348;-66
2022/02/03 00:50:58;;;;;;;;;;;19.30;57.60;;;;;;5039203;28;1033;-68
2022/02/03 00:53:24;;;;;;;;;;;19.30;57.60;;;;;;5037710;28;1358;-70
2022/02/03 00:55:52;;;;;;;;;;;19.30;57.60;;;;;;5037118;28;1906;-70
2022/02/03 00:58:17;;;;;;;;;;;19.30;57.60;;;;;;5054666;28;1183;-69
2022/02/03 01:00:43;;;;;;;;;;;19.30;57.60;;;;;;5037063;28;1323;-70
2022/02/03 01:03:12;;;;;;;;;;;19.30;57.60;;;;;;5037499;28;1336;-70
2022/02/03 01:05:39;;;;;;;;;;;19.30;57.70;;;;;;5036349;28;1132;-69
2022/02/03 01:08:08;;;;;;;;;;;19.30;57.70;;;;;;5037267;28;1088;-69
2022/02/03 01:10:39;;;;;;;;;;;19.30;57.70;;;;;;5055034;28;1189;-70
2022/02/03 01:13:14;;;;;;;;;;;19.30;57.70;;;;;;5038060;28;1045;-69
2022/02/03 01:15:48;;;;;;;;;;;19.30;57.70;;;;;;5036848;28;1902;-70
2022/02/03 01:18:34;;;;;;;;;;;19.30;57.70;;;;;;5054906;28;1064;-70
2022/02/03 01:21:32;;;;;;;;;;;19.30;57.70;;;;;;5054934;28;1396;-70
2022/02/03 01:35:02;;;;;;;;;;;19.30;57.60;;;;;;5054227;28;1965;-68
2022/02/03 01:45:37;;;;;;;;;;;19.30;57.60;;;;;;5037538;28;1296;-69
2022/02/03 01:48:23;;;;;;;;;;;19.30;57.60;;;;;;5037999;28;1317;-69
2022/02/03 01:53:34;;;;;;;;;;;19.30;57.60;;;;;;5038612;28;1046;-68
2022/02/03 01:56:10;;;;;;;;;;;19.30;57.50;;;;;;5034921;28;1910;-70
2022/02/03 01:58:35;;;;;;;;;;;19.40;57.60;;;;;;5035781;28;1428;-69
2022/02/03 02:01:01;;;;;;;;;;;19.30;57.50;;;;;;5053135;28;1265;-69
2022/02/03 02:03:37;;;;;;;;;;;19.40;57.60;;;;;;5034794;28;1291;-69
2022/02/03 02:06:22;;;;;;;;;;;19.30;57.50;;;;;;5035324;28;1384;-68
2022/02/03 02:09:14;;;;;;;;;;;19.30;57.50;;;;;;5035611;28;1386;-68
2022/02/03 02:11:59;;;;;;;;;;;19.30;57.50;;;;;;5029661;28;1366;-67
2022/02/03 02:15:26;;;;;;;;;;;19.30;57.50;;;;;;5036485;28;1956;-70
2022/02/03 02:39:52;;;;;;;;;;;19.30;57.50;;;;;;5052167;28;1329;-69
2022/02/03 02:42:32;;;;;;;;;;;19.30;57.50;;;;;;5053196;28;1374;-69
2022/02/03 02:45:00;;;;;;;;;;;19.30;57.50;;;;;;5053240;28;1276;-69
2022/02/03 02:47:30;;;;;;;;;;;19.30;57.50;;;;;;5034553;28;1776;-69
2022/02/03 02:50:11;;;;;;;;;;;19.30;57.60;;;;;;5033963;28;1649;-68
2022/02/03 02:52:43;;;;;;;;;;;19.40;57.60;;;;;;5052778;28;1627;-69
2022/02/03 02:55:24;;;;;;;;;;;19.40;57.60;;;;;;5050275;28;1968;-69
2022/02/03 02:58:06;;;;;;;;;;;19.30;57.50;;;;;;5033449;28;1305;-70
2022/02/03 03:03:33;;;;;;;;;;;19.30;57.50;;;;;;5035217;28;1236;-69
2022/02/03 03:33:37;;;;;;;;;;;19.30;57.60;;;;;;5053140;28;1364;-70
2022/02/03 03:36:09;;;;;;;;;;;19.30;57.60;;;;;;5051637;28;1959;-70
2022/02/03 03:38:36;;;;;;;;;;;19.30;57.60;;;;;;5052427;28;1460;-70
2022/02/03 03:41:03;;;;;;;;;;;19.30;57.60;;;;;;5052358;28;1421;-70
2022/02/03 03:43:36;;;;;;;;;;;19.30;57.60;;;;;;5018396;28;1426;-70
2022/02/03 03:46:11;;;;;;;;;;;19.30;57.60;;;;;;5033915;28;1748;-69
2022/02/03 03:48:55;;;;;;;;;;;19.30;57.70;;;;;;5034459;28;1672;-70
2022/02/03 03:51:21;;;;;;;;;;;19.30;57.70;;;;;;5054883;28;1654;-69
2022/02/03 03:53:59;;;;;;;;;;;19.30;57.70;;;;;;5056834;28;1914;-70
2022/02/03 03:56:35;;;;;;;;;;;19.30;57.70;;;;;;5039566;28;1392;-69
2022/02/03 03:59:23;;;;;;;;;;;19.30;57.70;;;;;;5056353;28;1669;-71
2022/02/03 04:45:00;;;;;;;;;;;19.20;57.70;;;;;;5055874;28;1380;-70
2022/02/03 04:53:52;;;;;;;;;;;19.20;57.70;;;;;;5041006;28;1467;-69
2022/02/03 04:56:31;;;;;;;;;;;19.20;57.80;;;;;;5054006;28;1914;-71
2022/02/03 05:04:57;;;;;;;;;;;19.20;57.80;;;;;;5055720;28;1421;-68
2022/02/03 05:07:29;;;;;;;;;;;19.20;57.80;;;;;;5039017;28;1715;-68
2022/02/03 05:13:06;;;;;;;;;;;19.20;57.80;;;;;;5037967;28;1449;-67
2022/02/03 05:18:48;;;;;;;;;;;19.20;57.70;;;;;;5037914;28;1684;-67
2022/02/03 05:32:00;;;;;;;;;;;19.20;57.80;;;;;;5039246;28;1588;-67
2022/02/03 05:33:29;;;;;;;;;;;19.20;58.40;;;;;;5054772;28;1620;-68
2022/02/03 05:47:10;;;;;;;;;;;19.20;57.80;;;;;;5036410;28;1387;-69
2022/02/03 06:03:03;;;;;;;;;;;19.20;57.80;;;;;;5054093;28;1440;-69
2022/02/03 06:05:48;;;;;;;;;;;19.20;57.80;;;;;;5053202;28;1596;-71
2022/02/03 06:08:24;;;;;;;;;;;19.20;57.80;;;;;;5039406;28;1833;-69
2022/02/03 06:13:44;;;;;;;;;;;19.30;57.70;;;;;;5053528;28;1642;-69
2022/02/03 06:21:39;;;;;;;;;;;19.40;57.30;;;;;;5053962;28;1568;-69
2022/02/03 06:24:16;;;;;;;;;;;19.50;57.20;;;;;;5039104;28;1786;-68
2022/02/03 06:29:27;;;;;;;;;;;19.60;57.00;;;;;;5038424;28;1380;-69
2022/02/03 06:31:53;;;;;;;;;;;19.60;56.80;;;;;;5053661;28;1610;-69
2022/02/03 06:34:19;;;;;;;;;;;19.70;56.70;;;;;;5053385;28;1890;-68
2022/02/03 06:36:45;;;;;;;;;;;19.70;56.70;;;;;;5034962;28;1707;-70
2022/02/03 06:39:30;;;;;;;;;;;19.70;56.60;;;;;;5035733;28;1677;-70
2022/02/03 06:41:58;;;;;;;;;;;19.70;56.50;;;;;;5053030;28;1369;-69
2022/02/03 06:44:29;;;;;;;;;;;19.70;56.50;;;;;;5035448;28;1694;-68
2022/02/03 06:46:59;;;;;;;;;;;19.80;56.40;;;;;;5035279;28;1396;-67
2022/02/03 06:52:02;;;;;;;;;;;19.80;56.40;;;;;;5065458;28;1507;-67
2022/02/03 06:54:43;;;;;;;;;;;19.80;56.30;;;;;;5073114;28;1961;-68
2022/02/03 06:57:16;;;;;;;;;;;19.80;56.40;;;;;;5072338;28;1685;-67
2022/02/03 06:59:53;;;;;;;;;;;19.80;56.20;;;;;;5066614;28;1503;-67
2022/02/03 07:02:20;;;;;;;;;;;19.80;56.20;;;;;;5033244;28;1358;-67
2022/02/03 07:04:46;;;;;;;;;;;19.80;56.20;;;;;;5033455;28;1608;-67
2022/02/03 07:07:16;;;;;;;;;;;19.80;56.20;;;;;;5040898;28;1445;-67
2022/02/03 07:09:44;;;;;;;;;;;19.80;56.20;;;;;;5033137;28;1751;-67
2022/02/03 07:12:09;;;;;;;;;;;19.90;56.30;;;;;;5032764;28;1092;-67
2022/02/03 07:14:35;;;;;;;;;;;19.90;56.20;;;;;;5014842;28;1953;-67
2022/02/03 07:17:02;;;;;;;;;;;19.80;56.10;;;;;;5032227;28;1358;-67
2022/02/03 07:19:28;;;;;;;;;;;19.90;56.20;;;;;;5020297;28;1807;-67
2022/02/03 07:21:53;;;;;;;;;;;19.90;56.20;;;;;;5040495;28;1369;-67
2022/02/03 07:24:19;;;;;;;;;;;19.90;56.20;;;;;;5032919;28;1674;-68
2022/02/03 07:26:44;;;;;;;;;;;19.80;56.20;;;;;;5032080;28;1147;-69
2022/02/03 07:29:11;;;;;;;;;;;19.80;56.10;;;;;;5032171;28;1735;-67
2022/02/03 07:31:36;;;;;;;;;;;19.80;56.10;;;;;;5044703;28;1399;-67
2022/02/03 07:34:09;;;;;;;;;;;19.80;56.10;;;;;;5052756;28;1949;-67
2022/02/03 07:36:36;;;;;;;;;;;19.80;56.20;;;;;;5034270;28;1453;-67
2022/02/03 07:39:02;;;;;;;;;;;19.90;56.20;;;;;;5034904;28;1635;-67
2022/02/03 07:41:28;;;;;;;;;;;19.90;56.20;;;;;;5034840;28;1619;-68
2022/02/03 07:43:53;;;;;;;;;;;20.00;56.10;;;;;;5052544;28;1501;-67
2022/02/03 07:46:19;;;;;;;;;;;20.10;56.00;;;;;;5051426;28;1632;-68
2022/02/03 07:48:44;;;;;;;;;;;20.20;55.80;;;;;;5052276;28;1634;-68
2022/02/03 07:51:09;;;;;;;;;;;20.30;55.70;;;;;;5052262;28;1662;-68
2022/02/03 07:53:35;;;;;;;;;;;20.40;55.50;;;;;;5052497;28;1379;-68
2022/02/03 07:56:00;;;;;;;;;;;20.50;55.20;;;;;;5051608;28;1938;-68
2022/02/03 07:58:26;;;;;;;;;;;20.60;55.10;;;;;;5052293;28;1358;-68
2022/02/03 08:00:51;;;;;;;;;;;20.70;54.80;;;;;;5046214;28;1505;-68
2022/02/03 08:03:17;;;;;;;;;;;20.80;54.60;;;;;;5030722;28;1399;-68
2022/02/03 08:05:45;;;;;;;;;;;20.90;54.40;;;;;;5043793;28;1294;-67
2022/02/03 08:08:18;;;;;;;;;;;21.00;54.20;;;;;;5034824;28;1696;-67
2022/02/03 08:10:50;;;;;;;;;;;21.00;53.90;;;;;;5051983;28;1427;-67
2022/02/03 08:13:23;;;;;;;;;;;21.10;53.80;;;;;;5052071;28;1608;-67
2022/02/03 08:15:55;;;;;;;;;;;21.20;53.70;;;;;;5051922;28;1973;-68
2022/02/03 08:18:21;;;;;;;;;;;21.20;53.50;;;;;;5052379;28;1664;-67
2022/02/03 08:20:51;;;;;;;;;;;21.30;53.40;;;;;;5052120;28;1388;-67
2022/02/03 08:26:01;;;;;;;;;;;21.30;53.30;;;;;;5031744;28;1354;-68
2022/02/03 08:33:24;;;;;;;;;;;21.40;53.10;;;;;;5032315;28;1660;-67
2022/02/03 08:35:50;;;;;;;;;;;21.50;53.10;;;;;;5052379;28;1914;-68
2022/02/03 08:38:21;;;;;;;;;;;21.50;53.10;;;;;;5046951;28;2202;-68
2022/02/03 08:43:15;;;;;;;;;;;21.50;53.10;;;;;;5029136;28;1412;-67
2022/02/03 08:45:40;;;;;;;;;;;21.50;53.20;;;;;;5044713;28;1175;-67
2022/02/03 08:48:06;;;;;;;;;;;21.50;53.10;;;;;;5045456;28;1299;-67
2022/02/03 08:50:33;;;;;;;;;;;21.50;53.20;;;;;;5035287;28;1709;-67
2022/02/03 08:58:26;;;;;;;;;;;21.50;53.20;;;;;;5035673;28;1388;-68
2022/02/03 09:28:16;;;;;;;;;;;21.50;53.20;;;;;;5046054;28;1642;-67
2022/02/03 09:37:16;;;;;;;;;;;21.20;53.80;;;;;;5048969;28;981;-68
2022/02/03 09:51:27;;;;;;;;;;;21.00;54.10;;;;;;5018402;28;1390;-68
2022/02/03 09:54:06;;;;;;;;;;;21.00;54.20;;;;;;5033742;28;1239;-68
2022/02/03 09:56:41;;;;;;;;;;;21.00;54.30;;;;;;5046393;28;2323;-70
2022/02/03 09:59:13;;;;;;;;;;;21.00;54.30;;;;;;5039060;28;1389;-69
2022/02/03 10:01:43;;;;;;;;;;;20.90;54.40;;;;;;5041976;28;1245;-67
2022/02/03 10:04:24;;;;;;;;;;;20.90;54.40;;;;;;5048894;28;1146;-68
2022/02/03 10:06:56;;;;;;;;;;;20.90;54.50;;;;;;5039604;28;1881;-68
2022/02/03 10:09:34;;;;;;;;;;;20.90;54.50;;;;;;5051568;28;1354;-68
2022/02/03 10:12:00;;;;;;;;;;;20.90;54.50;;;;;;5043996;28;1107;-68
2022/02/03 10:14:35;;;;;;;;;;;20.90;54.60;;;;;;5032502;28;1894;-67
2022/02/03 10:17:01;;;;;;;;;;;20.90;54.60;;;;;;5032077;28;1274;-67
2022/02/03 10:19:34;;;;;;;;;;;20.90;54.60;;;;;;5037650;28;1420;-67
2022/02/03 10:22:01;;;;;;;;;;;20.90;54.60;;;;;;5038795;28;1055;-66
2022/02/03 10:24:32;;;;;;;;;;;20.90;54.60;;;;;;5036176;28;1201;-66
2022/02/03 10:26:57;;;;;;;;;;;20.90;54.60;;;;;;5033401;28;1056;-68
2022/02/03 10:29:26;;;;;;;;;;;21.00;54.50;;;;;;5044522;28;1364;-67
2022/02/03 10:31:51;;;;;;;;;;;21.00;54.40;;;;;;5033508;28;1263;-68
2022/02/03 10:34:25;;;;;;;;;;;21.00;54.30;;;;;;5057581;28;1945;-69
2022/02/03 10:39:54;;;;;;;;;;;21.10;54.20;;;;;;5040269;28;1369;-68
2022/02/03 10:45:01;;;;;;;;;;;21.10;54.00;;;;;;5041008;28;1032;-69
2022/02/03 10:52:53;;;;;;;;;;;21.20;53.90;;;;;;5050155;28;1298;-68
2022/02/03 11:00:53;;;;;;;;;;;21.10;53.90;;;;;;5023639;28;1369;-69
2022/02/03 11:03:31;;;;;;;;;;;21.10;54.00;;;;;;5026982;28;1720;-69
2022/02/03 11:09:05;;;;;;;;;;;21.10;54.00;;;;;;5040589;28;1196;-69
2022/02/03 11:11:32;;;;;;;;;;;21.10;54.10;;;;;;5041254;28;1236;-68
2022/02/03 11:13:58;;;;;;;;;;;21.10;54.20;;;;;;5045429;28;1276;-69
2022/02/03 11:16:23;;;;;;;;;;;21.10;54.20;;;;;;5046803;28;1886;-69
2022/02/03 11:18:49;;;;;;;;;;;21.10;54.20;;;;;;5030141;28;1303;-69
2022/02/03 11:21:15;;;;;;;;;;;21.10;54.20;;;;;;5034461;28;1215;-68
2022/02/03 11:23:46;;;;;;;;;;;21.00;54.20;;;;;;5046089;28;1044;-69
2022/02/03 11:26:38;;;;;;;;;;;21.00;54.30;;;;;;5023650;28;1157;-69
2022/02/03 11:29:43;;;;;;;;;;;21.00;54.30;;;;;;5023048;28;1409;-69
2022/02/03 11:32:53;;;;;;;;;;;21.00;54.40;;;;;;5036797;28;1247;-68
2022/02/03 11:37:49;;;;;;;;;;;20.90;54.40;;;;;;5016728;28;954;-69
2022/02/03 11:46:19;;;;;;;;;;;20.90;54.60;;;;;;5035215;28;1868;-68
2022/02/03 11:54:42;;;;;;;;;;;20.80;54.60;;;;;;5042390;28;1901;-67
2022/02/03 12:05:22;;;;;;;;;;;20.90;54.70;;;;;;5038466;28;1024;-70
2022/02/03 12:10:15;;;;;;;;;;;20.90;54.60;;;;;;5051837;28;1315;-70
2022/02/03 12:16:25;;;;;;;;;;;21.00;54.40;;;;;;5055299;28;1890;-70
2022/02/03 12:19:11;;;;;;;;;;;21.10;54.40;;;;;;5055793;28;1350;-70
2022/02/03 12:21:47;;;;;;;;;;;21.10;54.30;;;;;;5040155;28;1353;-70
2022/02/03 12:27:19;;;;;;;;;;;21.10;54.20;;;;;;5039884;28;1315;-70
2022/02/03 12:29:50;;;;;;;;;;;21.10;54.20;;;;;;5046192;28;1729;-70
2022/02/03 12:32:24;;;;;;;;;;;21.10;54.20;;;;;;5035395;28;1279;-70
2022/02/03 12:43:14;;;;;;;;;;;21.10;54.20;;;;;;5039159;28;1305;-69
2022/02/03 12:45:40;;;;;;;;;;;21.10;54.20;;;;;;5055084;28;1306;-69
2022/02/03 12:48:05;;;;;;;;;;;21.10;54.20;;;;;;5036976;28;1261;-69
2022/02/03 12:50:32;;;;;;;;;;;21.10;54.20;;;;;;5054875;22;3803;-71
2022/02/03 12:52:58;;;;;;;;;;;21.10;54.30;;;;;;5045377;28;1281;-72
2022/02/03 12:55:23;;;;;;;;;;;21.10;54.30;;;;;;5055055;28;1913;-72
2022/02/03 12:57:49;;;;;;;;;;;21.10;54.30;;;;;;5055412;28;1335;-72
2022/02/03 13:00:19;;;;;;;;;;;21.10;54.30;;;;;;5030705;28;1422;-72
2022/02/03 13:02:54;;;;;;;;;;;21.00;54.30;;;;;;5037991;28;1189;-72
2022/02/03 13:05:21;;;;;;;;;;;21.00;54.30;;;;;;5037146;28;1374;-70
2022/02/03 13:07:46;;;;;;;;;;;21.00;54.40;;;;;;5037558;28;1667;-69
2022/02/03 13:10:12;;;;;;;;;;;21.00;54.40;;;;;;5055224;28;1385;-70
2022/02/03 13:12:46;;;;;;;;;;;21.00;54.40;;;;;;5037670;28;1697;-71
2022/02/03 13:15:12;;;;;;;;;;;21.00;54.50;;;;;;5038380;28;1965;-70
2022/02/03 13:17:41;;;;;;;;;;;21.00;54.50;;;;;;5020359;28;1652;-70
2022/02/03 13:20:33;;;;;;;;;;;20.90;54.50;;;;;;5054838;28;1446;-73
2022/02/03 13:23:05;;;;;;;;;;;20.90;54.50;;;;;;5039634;28;1252;-72
2022/02/03 13:28:41;;;;;;;;;;;20.90;54.60;;;;;;4973417;28;1490;-72
2022/02/03 13:31:26;;;;;;;;;;;20.90;54.60;;;;;;5020736;28;1389;-71
2022/02/03 13:33:59;;;;;;;;;;;20.90;54.60;;;;;;5039538;28;1194;-71
2022/02/03 13:36:29;;;;;;;;;;;20.90;54.70;;;;;;5053193;28;1906;-72
2022/02/03 13:39:00;;;;;;;;;;;20.80;54.70;;;;;;5041393;28;1207;-70
2022/02/03 13:41:27;;;;;;;;;;;20.80;54.70;;;;;;5059316;28;1374;-71
2022/02/03 13:43:53;;;;;;;;;;;20.80;54.80;;;;;;5062238;28;1533;-71
2022/02/03 13:46:28;;;;;;;;;;;20.80;54.80;;;;;;5028173;28;1307;-70
2022/02/03 13:48:53;;;;;;;;;;;20.80;54.90;;;;;;5032215;28;1348;-73
2022/02/03 13:51:19;;;;;;;;;;;20.80;54.90;;;;;;5036087;28;1359;-72
2022/02/03 13:53:56;;;;;;;;;;;20.80;54.90;;;;;;5059442;28;1336;-72
2022/02/03 14:13:36;;;;;;;;;;;20.70;55.10;;;;;;5052020;28;1185;-69
2022/02/03 14:16:20;;;;;;;;;;;20.70;55.10;;;;;;5039722;28;1940;-72
2022/02/03 14:21:42;;;;;;;;;;;20.60;55.10;;;;;;5050965;28;1896;-71
2022/02/03 14:27:05;;;;;;;;;;;20.60;55.20;;;;;;5048152;28;1176;-71
2022/02/03 14:29:37;;;;;;;;;;;20.60;55.20;;;;;;5009800;28;1321;-72
2022/02/03 14:32:05;;;;;;;;;;;20.60;55.30;;;;;;5047522;28;1159;-72
2022/02/03 14:34:33;;;;;;;;;;;20.60;55.30;;;;;;5053474;28;1961;-72
2022/02/03 14:37:07;;;;;;;;;;;20.60;55.30;;;;;;5053291;28;897;-72
2022/02/03 14:42:10;;;;;;;;;;;20.50;55.30;;;;;;5032005;28;1205;-71
2022/02/03 14:44:36;;;;;;;;;;;20.50;55.40;;;;;;5061750;28;1157;-72
2022/02/03 14:47:01;;;;;;;;;;;20.50;55.40;;;;;;5053313;28;779;-72
2022/02/03 14:49:27;;;;;;;;;;;20.50;55.40;;;;;;5035809;28;1264;-72
2022/02/03 14:52:11;;;;;;;;;;;20.50;55.50;;;;;;5053331;28;906;-72
2022/02/03 15:00:06;;;;;;;;;;;20.50;55.50;;;;;;5038144;28;1459;-72
2022/02/03 15:02:31;;;;;;;;;;;20.40;55.50;;;;;;5015733;28;1316;-72
2022/02/03 15:05:05;;;;;;;;;;;20.40;55.60;;;;;;5053354;28;1242;-73
2022/02/03 15:07:30;;;;;;;;;;;20.40;55.60;;;;;;5034654;28;1464;-72
2022/02/03 15:10:42;;;;;;;;;;;20.40;55.60;;;;;;5035061;28;1260;-72
2022/02/03 15:15:22;;;;;;;;;;;20.40;55.70;;;;;;5053276;28;2024;-71
2022/02/03 15:17:47;;;;;;;;;;;20.40;55.70;;;;;;5052690;28;1370;-71
2022/02/03 15:20:12;;;;;;;;;;;20.40;55.70;;;;;;5034784;28;1679;-70
2022/02/03 15:22:38;;;;;;;;;;;20.40;55.80;;;;;;5052860;28;1377;-70
2022/02/03 15:25:04;;;;;;;;;;;20.30;55.70;;;;;;5034938;28;1714;-70
2022/02/03 15:27:30;;;;;;;;;;;20.30;55.80;;;;;;5034253;28;1738;-70
2022/02/03 15:29:59;;;;;;;;;;;20.30;55.80;;;;;;5034308;28;1285;-70
2022/02/03 15:32:25;;;;;;;;;;;20.30;55.80;;;;;;5051360;28;1396;-70
2022/02/03 15:34:53;;;;;;;;;;;20.30;55.80;;;;;;5043102;28;1902;-70
2022/02/03 15:37:20;;;;;;;;;;;20.30;55.90;;;;;;5034561;28;1188;-70
2022/02/03 15:39:51;;;;;;;;;;;20.30;56.50;;;;;;5052777;28;1241;-70
2022/02/03 15:42:19;;;;;;;;;;;20.30;55.90;;;;;;5036013;28;1675;-70
2022/02/03 15:44:49;;;;;;;;;;;20.30;55.90;;;;;;5035145;28;851;-70
2022/02/03 15:47:25;;;;;;;;;;;20.20;55.90;;;;;;5035136;28;742;-70
2022/02/03 15:50:24;;;;;;;;;;;20.20;56.00;;;;;;5019675;28;1346;-70
2022/02/03 15:59:08;;;;;;;;;;;20.20;56.10;;;;;;5038014;28;660;-70
2022/02/03 16:17:10;;;;;;;;;;;20.20;56.20;;;;;;5065635;28;689;-70
2022/02/03 16:22:23;;;;;;;;;;;20.20;56.20;;;;;;5052733;28;929;-71
2022/02/03 16:54:11;;;;;;;;;;;20.10;56.30;;;;;;5052569;28;913;-71
2022/02/03 16:56:37;;;;;;;;;;;20.10;56.30;;;;;;5034869;28;1914;-70
2022/02/03 16:59:03;;;;;;;;;;;20.10;56.30;;;;;;5053794;28;1080;-70
2022/02/03 17:01:28;;;;;;;;;;;20.10;56.30;;;;;;5055522;28;1422;-70
2022/02/03 17:03:54;;;;;;;;;;;20.10;56.30;;;;;;5027419;28;1087;-71
2022/02/03 17:06:20;;;;;;;;;;;20.00;56.30;;;;;;5034929;28;1172;-71
2022/02/03 17:08:45;;;;;;;;;;;20.00;56.30;;;;;;5037815;28;1100;-70
2022/02/03 17:11:11;;;;;;;;;;;20.00;56.30;;;;;;5037430;28;1303;-70
2022/02/03 17:13:36;;;;;;;;;;;20.00;56.30;;;;;;5037763;28;1209;-70
2022/02/03 17:16:02;;;;;;;;;;;20.00;56.30;;;;;;5055518;28;1960;-70
2022/02/03 17:18:27;;;;;;;;;;;20.00;56.30;;;;;;5037180;28;1329;-70
2022/02/03 17:20:53;;;;;;;;;;;20.00;56.30;;;;;;5047612;28;1232;-70
2022/02/03 17:23:22;;;;;;;;;;;20.00;56.40;;;;;;5043137;28;1355;-68
2022/02/03 17:26:02;;;;;;;;;;;20.00;56.40;;;;;;5029280;28;1337;-69
2022/02/03 17:28:36;;;;;;;;;;;20.00;56.30;;;;;;5036383;28;1406;-70
2022/02/03 17:31:09;;;;;;;;;;;20.00;56.30;;;;;;5047832;28;1291;-70
2022/02/03 18:03:02;;;;;;;;;;;20.00;56.30;;;;;;5054047;28;1969;-70
2022/02/03 18:10:07;;;;;;;;;;;20.00;56.30;;;;;;5053231;28;1304;-70
2022/02/03 18:30:45;;;;;;;;;;;20.00;56.30;;;;;;5048609;28;2161;-70
2022/02/03 18:33:44;;;;;;;;;;;20.00;56.30;;;;;;5018476;28;1068;-70
2022/02/03 18:36:13;;;;;;;;;;;20.00;56.30;;;;;;5051429;28;1949;-72
2022/02/03 18:52:38;;;;;;;;;;;20.00;56.30;;;;;;5033097;22;4130;-68
2022/02/03 18:55:13;;;;;;;;;;;20.00;56.30;;;;;;5031787;28;1910;-67
2022/02/03 19:00:33;;;;;;;;;;;20.00;56.30;;;;;;5015583;28;1540;-67
2022/02/03 19:27:02;;;;;;;;;;;19.90;56.30;;;;;;5013396;28;1604;-67
2022/02/03 20:04:58;;;;;;;;;;;20.00;56.40;;;;;;5004941;28;1079;-65
2022/02/03 20:07:43;;;;;;;;;;;19.90;56.40;;;;;;5005125;28;1342;-66
2022/02/03 20:10:16;;;;;;;;;;;19.90;56.30;;;;;;5008845;28;1290;-69
2022/02/03 20:12:42;;;;;;;;;;;19.90;56.40;;;;;;5005896;28;1299;-70
2022/02/03 20:15:09;;;;;;;;;;;19.90;56.40;;;;;;5003390;28;1952;-66
2022/02/03 20:17:34;;;;;;;;;;;19.90;56.30;;;;;;4991183;28;1273;-65
2022/02/03 20:20:00;;;;;;;;;;;19.90;56.30;;;;;;5003721;28;1228;-67
2022/02/03 20:22:31;;;;;;;;;;;19.90;56.30;;;;;;4994490;28;1253;-69
2022/02/03 20:24:56;;;;;;;;;;;19.90;56.40;;;;;;5005147;28;1238;-69
2022/02/03 20:27:22;;;;;;;;;;;19.90;56.40;;;;;;4990048;28;1297;-68
2022/02/03 20:29:49;;;;;;;;;;;19.90;56.40;;;;;;5004874;28;1140;-69
2022/02/03 20:32:15;;;;;;;;;;;19.90;56.30;;;;;;5005827;28;1336;-68
2022/02/03 20:34:40;;;;;;;;;;;19.90;56.30;;;;;;4991953;28;1902;-69
2022/02/03 20:37:06;;;;;;;;;;;19.90;56.30;;;;;;4994559;28;1303;-67
2022/02/03 20:39:31;;;;;;;;;;;19.90;56.40;;;;;;5009265;28;1268;-67
2022/02/03 20:41:57;;;;;;;;;;;19.90;56.30;;;;;;4993510;28;1355;-66
2022/02/03 20:44:22;;;;;;;;;;;19.90;56.40;;;;;;5010713;28;1315;-67
2022/02/03 20:46:48;;;;;;;;;;;19.90;56.30;;;;;;4997498;28;2337;-67
2022/02/03 20:49:13;;;;;;;;;;;19.90;56.30;;;;;;5014667;28;1251;-66
2022/02/03 20:51:40;;;;;;;;;;;19.90;56.40;;;;;;4993931;28;1377;-68
2022/02/03 20:54:05;;;;;;;;;;;19.90;56.40;;;;;;5015915;28;1312;-68
2022/02/03 20:56:31;;;;;;;;;;;19.90;56.40;;;;;;4997869;28;1902;-68
2022/02/03 20:59:00;;;;;;;;;;;19.90;56.40;;;;;;5015985;28;1379;-69
2022/02/03 21:01:31;;;;;;;;;;;19.90;56.40;;;;;;4993536;28;1858;-68
2022/02/03 21:04:04;;;;;;;;;;;19.90;56.40;;;;;;5015615;28;1652;-69
2022/02/03 21:06:29;;;;;;;;;;;19.90;56.40;;;;;;5015490;28;1042;-67
2022/02/03 21:08:55;;;;;;;;;;;19.90;56.40;;;;;;4998230;28;1154;-68
2022/02/03 21:11:20;;;;;;;;;;;19.90;56.40;;;;;;5015487;28;1396;-67
2022/02/03 21:13:46;;;;;;;;;;;19.90;56.40;;;;;;4998190;28;1402;-67
2022/02/03 21:16:13;;;;;;;;;;;19.90;56.40;;;;;;5014931;28;1898;-68
2022/02/03 21:18:41;;;;;;;;;;;19.90;56.40;;;;;;5015437;28;1549;-68
2022/02/03 21:21:07;;;;;;;;;;;19.90;56.40;;;;;;5015461;28;1428;-67
2022/02/03 21:23:32;;;;;;;;;;;19.90;56.40;;;;;;4990453;28;1082;-67
2022/02/03 21:26:00;;;;;;;;;;;19.90;56.40;;;;;;4997506;28;1400;-68
2022/02/03 21:28:29;;;;;;;;;;;19.90;56.40;;;;;;4995258;28;1272;-66
2022/02/03 21:30:55;;;;;;;;;;;19.90;56.40;;;;;;5015443;28;1391;-66
2022/02/03 21:33:24;;;;;;;;;;;19.90;56.40;;;;;;4997791;28;1061;-66
2022/02/03 21:35:50;;;;;;;;;;;19.90;56.40;;;;;;4997658;28;1906;-66
2022/02/03 21:38:16;;;;;;;;;;;19.90;56.40;;;;;;4997642;28;1377;-66
2022/02/03 21:40:42;;;;;;;;;;;19.90;56.40;;;;;;5015014;28;1375;-66
2022/02/03 21:43:07;;;;;;;;;;;19.90;56.50;;;;;;4997406;28;1257;-67
2022/02/03 21:45:33;;;;;;;;;;;19.80;56.40;;;;;;4996218;28;1405;-67
2022/02/03 21:47:58;;;;;;;;;;;19.80;56.50;;;;;;4997226;28;1332;-67
2022/02/03 21:50:29;;;;;;;;;;;19.80;56.50;;;;;;4997172;28;1380;-66
2022/02/03 21:52:55;;;;;;;;;;;19.80;56.50;;;;;;4997846;28;1021;-67
2022/02/03 21:55:20;;;;;;;;;;;19.80;56.60;;;;;;4997063;28;1907;-67
2022/02/03 21:57:49;;;;;;;;;;;19.80;56.60;;;;;;4996892;28;1242;-66
2022/02/03 22:00:15;;;;;;;;;;;19.80;56.60;;;;;;4997673;28;1336;-66
2022/02/03 22:02:41;;;;;;;;;;;19.80;56.70;;;;;;5014503;28;1345;-66
2022/02/03 22:05:11;;;;;;;;;;;19.70;56.70;;;;;;4997339;28;1283;-65
2022/02/03 22:07:37;;;;;;;;;;;19.70;56.70;;;;;;4997252;28;1466;-66
2022/02/03 22:10:03;;;;;;;;;;;19.70;56.80;;;;;;5014519;28;1687;-66
2022/02/03 22:12:28;;;;;;;;;;;19.70;56.80;;;;;;5014278;28;1412;-67
2022/02/03 22:14:53;;;;;;;;;;;19.70;56.80;;;;;;5014401;28;1954;-69
2022/02/03 22:17:19;;;;;;;;;;;19.70;56.90;;;;;;4996883;28;1105;-70
2022/02/03 22:19:50;;;;;;;;;;;19.70;56.90;;;;;;5006092;28;1040;-69
2022/02/03 22:46:35;;;;;;;;;;;19.50;57.20;;;;;;5014387;28;998;-66
2022/02/03 22:49:04;;;;;;;;;;;19.50;57.30;;;;;;5014525;28;2048;-67
2022/02/03 22:51:33;;;;;;;;;;;19.50;57.30;;;;;;5014302;28;1302;-68
2022/02/03 22:53:59;;;;;;;;;;;19.50;57.30;;;;;;5011939;28;1197;-66
2022/02/03 22:56:25;;;;;;;;;;;19.50;57.40;;;;;;5005534;28;1911;-66
2022/02/03 23:01:19;;;;;;;;;;;19.50;57.40;;;;;;5006160;28;1356;-66
2022/02/03 23:03:44;;;;;;;;;;;19.50;57.50;;;;;;5007228;28;1221;-67
2022/02/03 23:06:10;;;;;;;;;;;19.40;57.40;;;;;;5013528;28;1120;-67
2022/02/03 23:13:59;;;;;;;;;;;19.40;57.50;;;;;;5013862;28;1049;-70
2022/02/03 23:16:41;;;;;;;;;;;19.40;57.50;;;;;;5012974;28;1902;-68
2022/02/03 23:22:04;;;;;;;;;;;19.40;57.60;;;;;;4997138;28;1252;-68
2022/02/03 23:24:29;;;;;;;;;;;19.40;57.60;;;;;;5005704;28;1134;-68
2022/02/03 23:27:04;;;;;;;;;;;19.30;57.70;;;;;;5004327;28;1253;-65
2022/02/03 23:29:30;;;;;;;;;;;19.30;57.70;;;;;;5005494;28;1241;-68
2022/02/03 23:32:08;;;;;;;;;;;19.30;57.70;;;;;;4994845;28;1267;-65
2022/02/03 23:34:34;;;;;;;;;;;19.30;57.70;;;;;;5003622;28;1898;-66
2022/02/03 23:36:59;;;;;;;;;;;19.30;57.70;;;;;;5006293;28;1268;-68
2022/02/03 23:39:47;;;;;;;;;;;19.30;57.80;;;;;;5007884;28;1161;-68
2022/02/03 23:42:59;;;;;;;;;;;19.30;57.80;;;;;;5004092;28;1300;-69
